Terminal Aerodrome Forecast
Issued by NWS Portland, OR

Home | Current Version | Previous Version | Text Only | Print | Product List | Glossary On
Versions: 1 2 3 4 5 6 7 8 9 10 11 12 13 14 15 16 17 18 19 20 21 22 23 24 25 26 27 28 29 30 31 32
000
FTUS46 KPQR 030116 AAA
TAFHIO
TAF AMD
KHIO 030116Z 0301/0324 32013G20KT P6SM BKN040 OVC050
     FM030500 31007KT P6SM BKN035
     FM031000 VRB03KT P6SM BKN020
     FM031800 VRB02KT P6SM BKN040
     FM032000 VRB03KT P6SM SKC=

USA.gov is the U.S. government's official web portal to all federal, state and local government web resources and services.